Memorial Field Hot Springs US
ICAO: KHOT
IATA: HOT
Category: Medium
Scheduled Services: Yes

Elevation: 540 ft
TransAlt. 18000 ft.

Airport Communications:
MEMPHIS CNTR:127.825
ASOS:119.925
JONESBORO RDO:110
CTAF/UNICOM:123

KHOT Zoom In..

Runways:

(A) RW 05 length 6595 ft width 150 ft
ILS 111.50 / hdg 50

(B) RW 13 length 4098 ft width 100 ft
---- / hdg 130

(C) RW 23 length 6595 ft width 150 ft
---- / hdg 230

(D) RW 31 length 4098 ft width 100 ft
---- / hdg 310

Location; KHOT
Day. 26 / Time. 13.53 Zulu
* Altimeter: 29.88
* Temperature: 23° c. 73.4°f.
* Wind from: 000° Speed 00 kn.
Dewpoint: 22° c.
Visibility: 10 Statute Miles.
Clouds: Few 500 ft.

KHOT 261353Z AUTO 00000KT 10SM FEW005 23/22 A2988 RMK AO2 SLP111 T02280217


Wind - Calm.

 
 
jpsmedia.com for Web Design SOUNDCLOUD worldairports.se 2018   terms of use